Time;durP1;ratioP1;P1;durP2;ratioP2;P2;SDS_P1;SDS_P2;PMS_P1;PMS_P2;Temp;Humidity;BMP_temperature;BMP_pressure;BME280_temperature;BME280_humidity;BME280_pressure;Samples;Min_cycle;Max_cycle;Signal;HPM_P1;HPM_P2
2024/01/23 00:00:30;;;;;;;7.68;1.90;;;10.80;99.90;;;;;;5037308;28;20190;-70
2024/01/23 00:03:01;;;;;;;10.45;1.75;;;10.80;99.90;;;;;;5045070;28;20181;-70
2024/01/23 00:05:28;;;;;;;6.68;1.75;;;10.80;99.90;;;;;;5057232;28;20173;-69
2024/01/23 00:07:54;;;;;;;8.68;1.95;;;10.80;99.90;;;;;;5036796;28;20182;-70
2024/01/23 00:10:22;;;;;;;6.70;1.73;;;10.80;99.90;;;;;;5037035;28;20178;-70
2024/01/23 00:12:48;;;;;;;7.13;2.00;;;10.80;99.90;;;;;;5037314;28;20401;-70
2024/01/23 00:15:14;;;;;;;11.30;2.30;;;10.80;99.90;;;;;;5037225;28;20194;-68
2024/01/23 00:17:40;;;;;;;7.15;1.88;;;10.90;99.90;;;;;;5037410;28;20200;-70
2024/01/23 00:20:08;;;;;;;9.98;1.80;;;10.90;99.90;;;;;;5029677;28;20202;-68
2024/01/23 00:22:38;;;;;;;7.72;2.05;;;10.90;99.90;;;;;;5017411;28;20179;-70
2024/01/23 00:25:04;;;;;;;7.78;2.15;;;10.90;99.90;;;;;;5019601;28;20194;-68
2024/01/23 00:27:32;;;;;;;10.35;2.17;;;10.90;99.90;;;;;;5037209;28;20185;-69
2024/01/23 00:29:58;;;;;;;7.63;2.10;;;10.90;99.90;;;;;;5029303;28;20261;-70
2024/01/23 00:32:30;;;;;;;7.88;2.03;;;10.90;99.90;;;;;;5036723;28;20210;-69
2024/01/23 00:34:56;;;;;;;6.80;1.85;;;10.90;99.90;;;;;;5016975;28;20209;-69
2024/01/23 00:37:24;;;;;;;7.65;2.00;;;10.90;99.90;;;;;;5027815;28;20174;-69
2024/01/23 00:39:55;;;;;;;6.75;2.10;;;10.80;99.90;;;;;;5036566;28;20192;-70
2024/01/23 00:42:21;;;;;;;7.28;1.75;;;10.90;99.90;;;;;;5036975;28;20181;-69
2024/01/23 00:44:46;;;;;;;7.28;1.70;;;10.80;99.90;;;;;;5036546;28;20676;-69
2024/01/23 00:47:14;;;;;;;8.00;1.92;;;10.80;99.90;;;;;;5036536;28;20262;-70
2024/01/23 00:49:43;;;;;;;7.40;1.77;;;10.80;99.90;;;;;;5036828;28;20213;-70
2024/01/23 00:52:08;;;;;;;7.28;2.08;;;10.80;99.90;;;;;;5035724;28;20202;-70
2024/01/23 00:54:36;;;;;;;9.80;2.05;;;10.80;99.90;;;;;;5036315;28;20174;-68
2024/01/23 00:57:05;;;;;;;7.15;1.77;;;10.80;99.90;;;;;;5036413;28;20194;-67
2024/01/23 00:59:33;;;;;;;9.45;2.03;;;10.80;99.90;;;;;;5035917;28;20185;-68
2024/01/23 01:01:59;;;;;;;7.88;2.00;;;10.80;99.90;;;;;;5020946;28;20174;-69
2024/01/23 01:04:24;;;;;;;8.32;1.90;;;10.70;99.90;;;;;;5036300;28;20181;-67
2024/01/23 01:06:52;;;;;;;9.60;2.03;;;10.70;99.90;;;;;;5036394;28;20178;-69
2024/01/23 01:09:18;;;;;;;7.78;2.00;;;10.70;99.90;;;;;;5036395;28;20202;-69
2024/01/23 01:11:43;;;;;;;8.13;2.03;;;10.60;99.90;;;;;;5035788;28;20273;-67
2024/01/23 01:14:10;;;;;;;8.77;2.13;;;10.60;99.90;;;;;;5016377;28;20229;-67
2024/01/23 01:16:35;;;;;;;8.02;2.00;;;10.60;99.90;;;;;;5024055;28;20170;-70
2024/01/23 01:19:04;;;;;;;10.80;2.30;;;10.60;99.90;;;;;;5035993;28;20260;-70
2024/01/23 01:21:29;;;;;;;13.70;3.10;;;10.60;99.90;;;;;;5036154;28;20178;-69
2024/01/23 01:23:55;;;;;;;7.55;1.92;;;10.50;99.90;;;;;;5036852;28;20255;-69
2024/01/23 01:26:23;;;;;;;7.88;1.95;;;10.70;99.90;;;;;;5035815;28;20265;-69
2024/01/23 01:28:48;;;;;;;8.10;2.17;;;10.50;99.90;;;;;;5035931;28;20213;-69
2024/01/23 01:31:16;;;;;;;8.93;2.10;;;10.60;99.90;;;;;;5035774;28;20328;-69
2024/01/23 01:33:42;;;;;;;10.38;2.50;;;10.50;99.90;;;;;;5035816;28;20174;-69
2024/01/23 01:36:10;;;;;;;9.85;2.28;;;10.50;99.90;;;;;;5036130;28;20174;-70
2024/01/23 01:38:35;;;;;;;7.80;2.35;;;10.50;99.90;;;;;;5035923;28;20178;-68
2024/01/23 01:41:03;;;;;;;10.07;2.20;;;10.40;99.90;;;;;;5035792;28;20178;-70
2024/01/23 01:43:33;;;;;;;10.82;2.10;;;10.50;99.90;;;;;;5035661;28;20193;-69
2024/01/23 01:46:02;;;;;;;8.07;1.83;;;10.50;99.90;;;;;;5035462;28;20339;-68
2024/01/23 01:48:30;;;;;;;11.23;2.17;;;10.40;99.90;;;;;;5035673;28;20213;-68
2024/01/23 01:50:58;;;;;;;13.93;2.35;;;10.40;99.90;;;;;;5029225;28;20206;-67
2024/01/23 01:53:24;;;;;;;9.13;2.10;;;10.30;99.90;;;;;;5030870;28;20177;-68
2024/01/23 01:55:49;;;;;;;8.00;2.17;;;10.10;99.90;;;;;;5031781;28;20198;-68
2024/01/23 01:58:19;;;;;;;9.52;2.15;;;10.00;99.90;;;;;;5017154;28;20179;-68
2024/01/23 02:00:45;;;;;;;10.38;2.30;;;9.80;99.90;;;;;;5035198;28;20202;-68
2024/01/23 02:03:13;;;;;;;9.48;2.20;;;9.70;99.90;;;;;;5031417;28;20411;-68
2024/01/23 02:05:44;;;;;;;8.88;2.17;;;9.50;99.90;;;;;;5017599;28;20266;-69
2024/01/23 02:08:10;;;;;;;9.25;2.15;;;9.50;99.90;;;;;;5035066;28;20194;-69
2024/01/23 02:10:35;;;;;;;12.27;2.60;;;9.40;99.90;;;;;;5034814;28;20185;-69
2024/01/23 02:13:01;;;;;;;12.00;2.38;;;9.50;99.90;;;;;;5035414;28;20256;-69
2024/01/23 02:15:27;;;;;;;11.55;2.35;;;9.50;99.90;;;;;;5026414;28;20170;-68
2024/01/23 02:17:52;;;;;;;7.90;2.20;;;9.60;99.90;;;;;;5031131;28;20202;-69
2024/01/23 02:20:18;;;;;;;10.20;2.00;;;9.60;99.90;;;;;;5015318;28;20178;-66
2024/01/23 02:22:43;;;;;;;9.38;2.30;;;9.60;99.90;;;;;;5032886;28;20202;-68
2024/01/23 02:25:13;;;;;;;9.73;2.42;;;9.70;99.90;;;;;;5035195;28;20173;-69
2024/01/23 02:27:39;;;;;;;10.13;2.58;;;9.70;99.90;;;;;;5034907;28;20202;-69
2024/01/23 02:30:05;;;;;;;8.82;2.17;;;9.70;99.90;;;;;;5034882;28;20206;-69
2024/01/23 02:32:30;;;;;;;10.90;2.25;;;9.70;99.90;;;;;;5034826;28;20177;-69
2024/01/23 02:35:01;;;;;;;10.43;2.30;;;9.70;99.90;;;;;;5031606;28;20186;-69
2024/01/23 02:37:26;;;;;;;11.82;2.13;;;9.70;99.90;;;;;;5015146;28;20174;-69
2024/01/23 02:39:54;;;;;;;9.27;2.13;;;9.70;99.90;;;;;;5019773;28;20186;-68
2024/01/23 02:42:22;;;;;;;11.35;2.17;;;9.80;99.90;;;;;;5034780;28;20185;-70
2024/01/23 02:44:47;;;;;;;7.93;2.00;;;9.70;99.90;;;;;;5035354;28;20197;-69
2024/01/23 02:47:13;;;;;;;7.47;2.17;;;9.80;99.90;;;;;;5021243;28;20182;-70
2024/01/23 02:49:41;;;;;;;9.13;2.30;;;9.70;99.90;;;;;;5034453;28;20213;-69
2024/01/23 02:52:07;;;;;;;8.85;1.92;;;9.70;99.90;;;;;;5034390;28;20174;-70
2024/01/23 02:54:33;;;;;;;9.15;2.13;;;9.70;99.90;;;;;;5034129;28;20205;-69
2024/01/23 02:56:59;;;;;;;10.27;2.22;;;9.60;99.90;;;;;;5034693;28;20178;-69
2024/01/23 02:59:26;;;;;;;8.40;1.98;;;9.70;99.90;;;;;;5033739;28;20198;-70
2024/01/23 03:01:52;;;;;;;10.05;2.45;;;9.70;99.90;;;;;;5034485;28;20184;-69
2024/01/23 03:04:17;;;;;;;9.10;2.10;;;9.70;99.90;;;;;;5034512;28;20178;-69
2024/01/23 03:06:45;;;;;;;7.03;2.28;;;9.70;99.90;;;;;;5034230;28;20503;-70
2024/01/23 03:09:11;;;;;;;8.55;2.50;;;9.70;99.90;;;;;;5030659;28;20198;-70
2024/01/23 03:11:40;;;;;;;9.52;2.53;;;9.70;99.90;;;;;;5029039;28;20244;-69
2024/01/23 03:14:06;;;;;;;8.90;2.38;;;9.70;99.90;;;;;;5031079;28;20246;-69
2024/01/23 03:16:31;;;;;;;10.63;2.40;;;9.70;99.90;;;;;;5033395;28;20170;-69
2024/01/23 03:18:57;;;;;;;5.15;1.65;;;9.70;99.90;;;;;;5034116;28;20293;-68
2024/01/23 03:21:24;;;;;;;10.10;2.53;;;9.70;99.90;;;;;;5030621;28;20233;-69
2024/01/23 03:23:51;;;;;;;8.45;1.92;;;9.70;99.90;;;;;;5014567;28;20178;-70
2024/01/23 03:26:21;;;;;;;9.65;2.20;;;9.70;99.90;;;;;;5015868;28;20199;-70
2024/01/23 03:28:50;;;;;;;8.27;2.10;;;9.70;99.90;;;;;;5034086;28;20202;-68
2024/01/23 03:31:15;;;;;;;9.45;2.20;;;9.70;99.90;;;;;;5033788;28;20201;-69
2024/01/23 03:33:41;;;;;;;8.27;1.80;;;9.70;99.90;;;;;;5034297;28;20227;-69
2024/01/23 03:36:10;;;;;;;9.75;1.92;;;9.70;99.90;;;;;;5031315;28;20170;-69
2024/01/23 03:38:36;;;;;;;9.20;2.20;;;9.70;99.90;;;;;;5034133;28;20194;-69
2024/01/23 03:41:01;;;;;;;8.60;2.00;;;9.70;99.90;;;;;;5040748;28;20188;-69
2024/01/23 03:43:27;;;;;;;7.53;1.75;;;9.80;99.90;;;;;;5024981;28;20212;-69
2024/01/23 03:45:52;;;;;;;9.30;1.83;;;9.80;99.90;;;;;;5027650;28;20194;-70
2024/01/23 03:48:18;;;;;;;8.88;2.08;;;9.80;99.90;;;;;;5033631;28;20202;-70
2024/01/23 03:50:44;;;;;;;9.38;2.05;;;9.70;99.90;;;;;;5033499;28;20178;-70
2024/01/23 03:53:10;;;;;;;9.48;2.03;;;9.70;99.90;;;;;;5033952;28;20198;-69
2024/01/23 03:55:36;;;;;;;8.75;2.33;;;9.80;99.90;;;;;;5033565;28;20181;-69
2024/01/23 03:58:01;;;;;;;9.70;2.05;;;9.70;99.90;;;;;;5033683;28;20260;-69
2024/01/23 04:00:29;;;;;;;8.23;2.03;;;9.80;99.90;;;;;;5034043;28;20170;-70
2024/01/23 04:02:55;;;;;;;7.30;1.70;;;9.80;99.90;;;;;;5030280;28;20200;-69
2024/01/23 04:05:25;;;;;;;7.47;2.03;;;9.80;99.90;;;;;;5014121;28;20183;-69
2024/01/23 04:07:54;;;;;;;7.50;1.77;;;9.80;99.90;;;;;;5017250;28;20178;-67
2024/01/23 04:10:19;;;;;;;5.57;1.83;;;9.80;99.90;;;;;;5033700;28;20197;-69
2024/01/23 04:12:47;;;;;;;6.28;1.60;;;9.80;99.90;;;;;;5033830;28;20177;-69
2024/01/23 04:15:12;;;;;;;7.97;1.90;;;9.90;99.90;;;;;;5033295;28;20201;-69
2024/01/23 04:17:45;;;;;;;7.18;2.00;;;9.90;99.90;;;;;;5033788;28;20190;-69
2024/01/23 04:20:15;;;;;;;9.25;2.50;;;9.90;99.90;;;;;;5033290;28;20274;-67
2024/01/23 04:22:43;;;;;;;9.32;2.20;;;9.80;99.90;;;;;;5021865;28;20179;-70
2024/01/23 04:25:12;;;;;;;11.73;2.17;;;9.80;99.90;;;;;;5023140;28;20194;-69
2024/01/23 04:27:38;;;;;;;10.48;2.10;;;9.80;99.90;;;;;;5035239;28;20273;-68
2024/01/23 04:30:04;;;;;;;7.10;1.85;;;9.80;99.90;;;;;;5037117;28;20296;-70
2024/01/23 04:32:30;;;;;;;9.75;2.47;;;9.80;99.90;;;;;;5033638;28;20170;-70
2024/01/23 04:34:55;;;;;;;9.68;2.75;;;9.90;99.90;;;;;;5022096;28;20198;-69
2024/01/23 04:37:24;;;;;;;7.85;2.20;;;9.80;99.90;;;;;;5037096;28;20180;-69
2024/01/23 04:39:49;;;;;;;6.70;1.83;;;9.80;99.90;;;;;;5036912;28;20182;-68
2024/01/23 04:42:17;;;;;;;6.35;1.80;;;9.80;99.90;;;;;;5036571;28;20182;-69
2024/01/23 04:44:43;;;;;;;7.93;2.25;;;9.80;99.90;;;;;;5037038;28;20174;-69
2024/01/23 04:47:08;;;;;;;5.95;2.10;;;9.80;99.90;;;;;;5036938;28;20173;-70
2024/01/23 04:49:36;;;;;;;9.68;2.40;;;9.80;99.90;;;;;;5036546;28;20224;-69
2024/01/23 04:52:04;;;;;;;8.60;2.05;;;9.80;99.90;;;;;;5036679;28;20174;-70
2024/01/23 04:54:30;;;;;;;8.55;2.45;;;9.80;99.90;;;;;;5036793;28;20177;-70
2024/01/23 04:56:56;;;;;;;10.18;2.28;;;9.80;99.90;;;;;;5036373;28;20259;-69
2024/01/23 04:59:24;;;;;;;9.65;2.20;;;9.80;99.90;;;;;;5036714;28;20173;-69
2024/01/23 05:01:52;;;;;;;9.18;2.60;;;9.80;99.90;;;;;;5036452;28;20198;-69
2024/01/23 05:04:19;;;;;;;5.47;2.03;;;9.70;99.90;;;;;;5028408;28;20178;-70
2024/01/23 05:06:48;;;;;;;6.97;2.15;;;9.70;99.90;;;;;;5036424;28;20201;-70
2024/01/23 05:09:19;;;;;;;6.78;1.90;;;9.70;99.90;;;;;;5032529;28;20197;-70
2024/01/23 05:11:47;;;;;;;6.55;1.80;;;9.70;99.90;;;;;;5018314;28;20171;-69
2024/01/23 05:14:16;;;;;;;6.25;1.60;;;9.70;99.90;;;;;;5036285;28;20457;-69
2024/01/23 05:16:44;;;;;;;8.35;2.20;;;9.70;99.90;;;;;;5036511;28;20170;-69
2024/01/23 05:19:09;;;;;;;7.38;1.98;;;9.60;99.90;;;;;;5036457;28;20236;-69
2024/01/23 05:21:40;;;;;;;8.60;2.38;;;9.60;99.90;;;;;;5032534;28;20166;-71
2024/01/23 05:24:06;;;;;;;6.05;1.83;;;9.60;99.90;;;;;;5017376;28;20198;-70
2024/01/23 05:26:31;;;;;;;6.78;1.55;;;9.50;99.90;;;;;;5016440;28;20364;-68
2024/01/23 05:28:57;;;;;;;7.35;1.65;;;9.50;99.90;;;;;;5033781;28;20205;-69
2024/01/23 05:31:23;;;;;;;6.40;1.83;;;9.40;99.90;;;;;;5032930;28;20178;-70
2024/01/23 05:33:51;;;;;;;8.50;2.33;;;9.40;99.90;;;;;;5034997;28;20224;-68
2024/01/23 05:36:17;;;;;;;6.13;1.90;;;9.30;99.90;;;;;;5035719;28;20170;-69
2024/01/23 05:38:43;;;;;;;8.43;1.90;;;9.30;99.90;;;;;;5034935;28;20198;-70
2024/01/23 05:41:09;;;;;;;7.53;2.10;;;9.30;99.90;;;;;;5030193;28;20186;-70
2024/01/23 05:43:35;;;;;;;7.15;2.13;;;9.20;99.90;;;;;;5016034;28;20185;-70
2024/01/23 05:46:02;;;;;;;7.03;1.52;;;9.20;99.90;;;;;;5027682;28;20186;-70
2024/01/23 05:48:27;;;;;;;7.05;2.05;;;9.10;99.90;;;;;;5032033;28;20202;-70
2024/01/23 05:50:53;;;;;;;10.90;2.37;;;9.10;99.90;;;;;;5034578;28;20178;-70
2024/01/23 05:53:19;;;;;;;8.95;1.92;;;9.10;99.90;;;;;;5035564;28;20221;-70
2024/01/23 05:55:44;;;;;;;8.73;2.20;;;9.00;99.90;;;;;;5035041;28;20197;-70
2024/01/23 05:58:13;;;;;;;8.03;2.20;;;9.00;99.90;;;;;;5035293;28;20181;-70
2024/01/23 06:00:39;;;;;;;11.43;2.70;;;9.00;99.90;;;;;;5035160;28;20222;-69
2024/01/23 06:03:09;;;;;;;9.23;2.10;;;9.00;99.90;;;;;;5034867;28;20261;-69
2024/01/23 06:05:35;;;;;;;7.20;2.17;;;8.90;99.90;;;;;;5037631;28;20189;-68
2024/01/23 06:08:03;;;;;;;8.60;2.00;;;8.90;99.90;;;;;;5046939;28;20248;-70
2024/01/23 06:10:31;;;;;;;10.33;2.40;;;8.90;99.90;;;;;;5015343;28;20241;-70
2024/01/23 06:12:58;;;;;;;9.77;2.07;;;8.90;99.90;;;;;;5021372;28;20181;-69
2024/01/23 06:15:24;;;;;;;10.23;2.43;;;8.80;99.90;;;;;;5035225;28;20182;-70
2024/01/23 06:17:50;;;;;;;12.77;2.40;;;8.90;99.90;;;;;;5034996;28;20193;-69
2024/01/23 06:20:15;;;;;;;13.13;3.42;;;8.80;99.90;;;;;;5034521;28;20188;-69
2024/01/23 06:22:41;;;;;;;9.27;2.42;;;8.80;99.90;;;;;;5034938;28;20184;-70
2024/01/23 06:25:09;;;;;;;8.50;2.45;;;8.80;99.90;;;;;;5035069;28;20182;-69
2024/01/23 06:27:42;;;;;;;6.83;1.97;;;8.80;99.90;;;;;;5015145;28;20210;-70
2024/01/23 06:30:11;;;;;;;9.27;2.13;;;8.80;99.90;;;;;;5020107;28;20282;-70
2024/01/23 06:32:39;;;;;;;7.87;2.50;;;8.70;99.90;;;;;;5018599;28;20190;-70
2024/01/23 06:35:06;;;;;;;11.60;2.53;;;8.80;99.90;;;;;;5031271;28;20171;-71
2024/01/23 06:37:35;;;;;;;10.37;2.27;;;8.70;99.90;;;;;;5015077;28;20214;-70
2024/01/23 06:40:04;;;;;;;8.33;2.07;;;8.60;99.90;;;;;;5014583;28;20183;-68
2024/01/23 06:42:30;;;;;;;8.87;2.10;;;8.70;99.90;;;;;;5027350;28;20264;-70
2024/01/23 06:44:55;;;;;;;7.70;1.90;;;8.70;99.90;;;;;;5035327;28;20198;-65
2024/01/23 06:47:24;;;;;;;6.03;1.73;;;8.70;99.90;;;;;;5034375;28;20236;-64
2024/01/23 06:49:49;;;;;;;9.83;2.33;;;8.70;99.90;;;;;;5014402;28;20205;-64
2024/01/23 06:52:15;;;;;;;9.23;2.05;;;8.60;99.90;;;;;;5034524;28;20269;-65
2024/01/23 06:54:43;;;;;;;7.63;2.10;;;8.60;99.90;;;;;;5028245;28;20209;-65
2024/01/23 06:57:09;;;;;;;8.98;2.42;;;8.60;99.90;;;;;;5034178;28;20174;-65
2024/01/23 06:59:36;;;;;;;7.82;2.17;;;8.60;99.90;;;;;;5034239;28;20213;-64
2024/01/23 07:02:05;;;;;;;8.73;1.80;;;8.60;99.90;;;;;;5029933;28;20183;-65
2024/01/23 07:04:31;;;;;;;7.07;2.00;;;8.60;99.90;;;;;;5014191;28;20407;-66
2024/01/23 07:06:59;;;;;;;6.87;2.00;;;8.60;99.90;;;;;;5019656;28;20178;-66
2024/01/23 07:09:27;;;;;;;8.43;2.10;;;8.60;99.90;;;;;;5033748;28;20201;-65
2024/01/23 07:11:55;;;;;;;7.43;2.15;;;8.60;99.90;;;;;;5033978;28;20208;-65
2024/01/23 07:14:21;;;;;;;7.10;2.00;;;8.60;99.90;;;;;;5034082;28;20208;-65
2024/01/23 07:16:49;;;;;;;7.33;2.00;;;8.50;99.90;;;;;;5033632;28;20257;-65
2024/01/23 07:19:17;;;;;;;9.50;2.00;;;8.60;99.90;;;;;;5033968;28;20202;-66
2024/01/23 07:21:42;;;;;;;7.80;2.10;;;8.60;99.90;;;;;;5034109;28;20240;-65
2024/01/23 07:24:13;;;;;;;7.10;1.90;;;8.60;99.90;;;;;;5015090;28;20191;-66
2024/01/23 07:26:39;;;;;;;9.87;2.27;;;8.50;99.90;;;;;;5028108;28;20201;-66
2024/01/23 07:29:04;;;;;;;10.80;2.03;;;8.60;99.90;;;;;;5030629;28;20202;-66
2024/01/23 07:31:30;;;;;;;8.33;2.20;;;8.50;99.90;;;;;;5014415;28;20285;-66
2024/01/23 07:33:58;;;;;;;8.57;2.13;;;8.50;99.90;;;;;;5014340;28;20178;-65
2024/01/23 07:36:23;;;;;;;8.67;2.20;;;8.50;99.90;;;;;;5030836;28;20212;-65
2024/01/23 07:38:49;;;;;;;7.53;1.77;;;8.50;99.90;;;;;;5030219;28;20182;-66
2024/01/23 07:41:15;;;;;;;7.57;2.00;;;8.50;99.90;;;;;;5013861;28;20233;-66
2024/01/23 07:43:45;;;;;;;7.67;2.07;;;8.40;99.90;;;;;;5014238;28;20179;-65
2024/01/23 07:46:13;;;;;;;8.57;2.20;;;8.40;99.90;;;;;;5031040;28;20184;-66
2024/01/23 07:48:39;;;;;;;5.47;1.70;;;8.40;99.90;;;;;;5033895;28;20197;-65
2024/01/23 07:51:09;;;;;;;9.20;2.00;;;8.40;99.90;;;;;;5033822;28;20239;-66
2024/01/23 07:53:35;;;;;;;6.20;1.97;;;8.40;99.90;;;;;;5034131;28;20181;-66
2024/01/23 07:56:00;;;;;;;5.73;1.83;;;8.30;99.90;;;;;;5034083;28;20170;-66
2024/01/23 07:58:26;;;;;;;8.87;1.83;;;8.40;99.90;;;;;;5030108;28;20183;-67
2024/01/23 08:00:52;;;;;;;7.47;2.07;;;8.40;99.90;;;;;;5013814;28;20473;-64
2024/01/23 08:03:19;;;;;;;8.33;1.90;;;8.30;99.90;;;;;;5022616;28;20209;-67
2024/01/23 08:05:48;;;;;;;7.77;1.90;;;8.40;99.90;;;;;;5037789;28;20201;-65
2024/01/23 08:08:19;;;;;;;9.50;2.17;;;8.40;99.90;;;;;;5038312;28;20202;-67
2024/01/23 08:10:46;;;;;;;7.90;2.40;;;8.30;99.90;;;;;;5036777;28;20232;-64
2024/01/23 08:13:15;;;;;;;10.27;2.60;;;8.40;99.90;;;;;;5037410;28;20198;-64
2024/01/23 08:15:42;;;;;;;8.93;2.30;;;8.40;99.90;;;;;;5037242;28;20212;-65
2024/01/23 08:18:13;;;;;;;9.53;2.47;;;8.40;99.90;;;;;;5036914;28;20214;-67
2024/01/23 08:20:41;;;;;;;8.63;2.10;;;8.40;99.90;;;;;;5017557;28;20235;-65
2024/01/23 08:23:06;;;;;;;6.37;1.93;;;8.50;99.90;;;;;;5035978;28;20207;-65
2024/01/23 08:25:32;;;;;;;7.13;2.20;;;8.40;99.90;;;;;;5036664;28;20178;-65
2024/01/23 08:27:59;;;;;;;9.77;2.00;;;8.40;99.90;;;;;;5037174;28;20196;-66
2024/01/23 08:30:24;;;;;;;7.33;1.77;;;8.40;99.90;;;;;;5036957;28;20190;-65
2024/01/23 08:32:50;;;;;;;5.87;1.60;;;8.40;99.90;;;;;;5033299;28;20205;-65
2024/01/23 08:35:15;;;;;;;3.97;1.60;;;8.50;99.90;;;;;;5031883;28;20266;-66
2024/01/23 08:37:41;;;;;;;6.83;1.93;;;8.50;99.90;;;;;;5036755;28;20182;-65
2024/01/23 08:40:09;;;;;;;6.63;1.67;;;8.50;99.90;;;;;;5036945;28;20208;-66
2024/01/23 08:42:38;;;;;;;9.60;2.20;;;8.50;99.90;;;;;;5036420;28;20182;-66
2024/01/23 08:45:04;;;;;;;10.00;2.23;;;8.50;99.90;;;;;;5036414;28;20213;-65
2024/01/23 08:47:33;;;;;;;11.07;2.43;;;8.60;99.90;;;;;;5037642;28;20249;-64
2024/01/23 08:50:01;;;;;;;7.03;2.13;;;8.60;99.90;;;;;;5036113;28;20313;-65
2024/01/23 08:52:29;;;;;;;11.77;2.13;;;8.60;99.90;;;;;;5036756;28;20182;-65
2024/01/23 08:54:55;;;;;;;7.25;1.90;;;8.60;99.90;;;;;;5032233;28;20178;-65
2024/01/23 08:57:22;;;;;;;7.63;2.03;;;8.70;99.90;;;;;;5017143;28;20174;-66
2024/01/23 08:59:50;;;;;;;7.50;1.90;;;8.70;99.90;;;;;;5017062;28;20175;-65
2024/01/23 09:02:16;;;;;;;12.10;2.47;;;8.80;99.90;;;;;;5025403;28;20265;-65
2024/01/23 09:04:42;;;;;;;7.55;2.30;;;8.90;99.90;;;;;;5036362;28;20273;-65
2024/01/23 09:07:10;;;;;;;7.38;1.90;;;8.80;99.90;;;;;;5036497;28;20202;-65
2024/01/23 09:09:36;;;;;;;10.45;2.65;;;8.90;99.90;;;;;;5036161;28;20292;-65
2024/01/23 09:12:02;;;;;;;11.35;2.70;;;8.90;99.90;;;;;;5036194;28;20239;-65
2024/01/23 09:14:27;;;;;;;8.95;2.33;;;9.00;99.90;;;;;;5035135;28;20202;-65
2024/01/23 09:16:53;;;;;;;10.33;2.60;;;9.00;99.90;;;;;;5032512;28;20203;-64
2024/01/23 09:19:18;;;;;;;9.50;2.67;;;9.10;99.90;;;;;;5031247;28;20177;-65
2024/01/23 09:21:46;;;;;;;8.43;2.17;;;9.30;99.90;;;;;;5036227;28;20264;-65
2024/01/23 09:24:12;;;;;;;10.52;2.28;;;9.50;99.90;;;;;;5035963;28;20186;-65
2024/01/23 09:26:38;;;;;;;6.65;2.20;;;9.60;99.90;;;;;;5036275;28;20189;-65
2024/01/23 09:29:04;;;;;;;9.50;2.47;;;9.80;99.90;;;;;;5035732;28;20373;-65
2024/01/23 09:31:30;;;;;;;7.85;2.25;;;10.00;99.90;;;;;;5036054;28;20264;-65
2024/01/23 09:33:57;;;;;;;10.45;2.58;;;10.20;99.90;;;;;;5032287;28;20194;-65
2024/01/23 09:36:22;;;;;;;9.15;2.10;;;10.40;99.90;;;;;;5035970;28;20180;-65
2024/01/23 09:38:50;;;;;;;10.02;2.70;;;10.70;99.90;;;;;;5035482;28;20198;-65
2024/01/23 09:41:16;;;;;;;9.80;2.50;;;10.90;99.90;;;;;;5016160;28;20206;-66
2024/01/23 09:43:42;;;;;;;11.63;2.45;;;11.00;99.90;;;;;;5016579;28;20241;-65
2024/01/23 09:46:12;;;;;;;9.48;2.67;;;11.10;99.90;;;;;;5034889;28;20174;-65
2024/01/23 09:48:40;;;;;;;7.10;2.42;;;11.20;99.90;;;;;;5035525;28;20209;-65
2024/01/23 09:51:12;;;;;;;12.45;2.83;;;11.20;99.90;;;;;;5035225;28;20166;-65
2024/01/23 09:53:42;;;;;;;9.60;2.70;;;11.30;99.90;;;;;;5035159;28;20261;-65
2024/01/23 09:56:09;;;;;;;11.27;2.58;;;11.40;99.90;;;;;;5035455;28;20174;-67
2024/01/23 09:58:36;;;;;;;10.05;2.70;;;11.40;99.90;;;;;;5031933;28;20175;-65
2024/01/23 10:01:03;;;;;;;13.85;2.65;;;11.40;99.90;;;;;;5032184;28;20183;-64
2024/01/23 10:03:32;;;;;;;10.45;3.00;;;11.40;99.90;;;;;;5035368;28;20336;-66
2024/01/23 10:05:58;;;;;;;7.32;2.10;;;11.40;99.90;;;;;;5035152;28;20198;-65
2024/01/23 10:08:26;;;;;;;7.53;2.10;;;11.50;99.90;;;;;;5035037;28;20193;-67
2024/01/23 10:11:02;;;;;;;10.88;2.97;;;11.60;99.90;;;;;;5031522;28;20285;-65
2024/01/23 10:13:30;;;;;;;10.32;2.75;;;11.60;99.90;;;;;;5014915;28;20170;-66
2024/01/23 10:15:58;;;;;;;9.00;2.63;;;11.60;99.90;;;;;;5032633;28;20264;-65
2024/01/23 10:18:26;;;;;;;12.95;2.70;;;11.60;99.90;;;;;;5034912;28;20252;-65
2024/01/23 10:20:54;;;;;;;7.10;2.35;;;11.60;99.90;;;;;;5034936;28;20284;-66
2024/01/23 10:23:22;;;;;;;9.07;2.50;;;11.70;99.90;;;;;;5034961;28;20216;-64
2024/01/23 10:25:48;;;;;;;7.60;2.22;;;11.70;99.90;;;;;;5021100;28;20297;-67
2024/01/23 10:28:16;;;;;;;9.60;2.53;;;11.70;99.90;;;;;;5023613;28;20174;-65
2024/01/23 10:30:45;;;;;;;14.52;2.70;;;11.70;99.90;;;;;;5033993;28;20257;-65
2024/01/23 10:33:11;;;;;;;10.85;2.80;;;11.70;99.90;;;;;;5028441;28;20216;-67
2024/01/23 10:35:37;;;;;;;7.07;2.15;;;11.60;99.90;;;;;;5034826;28;20182;-66
2024/01/23 10:38:05;;;;;;;8.70;2.60;;;11.60;99.90;;;;;;5034273;28;20166;-67
2024/01/23 10:40:33;;;;;;;8.95;2.92;;;11.60;99.90;;;;;;5034029;28;20166;-67
2024/01/23 10:43:00;;;;;;;7.72;2.60;;;11.60;99.90;;;;;;5034563;28;20265;-66
2024/01/23 10:45:30;;;;;;;11.18;2.90;;;11.60;99.90;;;;;;5034968;28;20192;-68
2024/01/23 10:48:00;;;;;;;9.45;2.58;;;11.50;99.90;;;;;;5034720;28;20221;-67
2024/01/23 10:50:33;;;;;;;14.95;3.15;;;11.40;99.90;;;;;;5034233;28;20210;-65
2024/01/23 10:53:05;;;;;;;9.23;2.80;;;11.40;99.90;;;;;;5034591;28;20355;-66
2024/01/23 10:55:32;;;;;;;10.98;2.60;;;11.40;99.90;;;;;;5034025;28;20174;-69
2024/01/23 10:58:04;;;;;;;11.07;2.45;;;11.30;99.90;;;;;;5034472;28;20248;-66
2024/01/23 11:00:36;;;;;;;9.07;2.10;;;11.30;99.90;;;;;;5034707;28;20197;-66
2024/01/23 11:03:05;;;;;;;9.15;2.20;;;11.40;99.90;;;;;;5022517;28;20217;-66
2024/01/23 11:05:56;;;;;;;8.43;2.50;;;11.40;99.90;;;;;;5029842;28;20170;-67
2024/01/23 11:08:45;;;;;;;9.95;2.35;;;11.40;99.90;;;;;;5033911;28;20198;-66
2024/01/23 11:11:20;;;;;;;9.85;2.45;;;11.40;99.90;;;;;;5047686;28;20181;-66
2024/01/23 11:14:04;;;;;;;9.68;2.42;;;11.30;99.90;;;;;;5054639;28;20232;-67
2024/01/23 11:16:32;;;;;;;8.70;2.20;;;11.40;99.90;;;;;;5036693;28;20178;-66
2024/01/23 11:18:59;;;;;;;9.43;2.63;;;11.40;99.90;;;;;;5034165;28;20244;-66
2024/01/23 11:21:25;;;;;;;8.20;2.38;;;11.40;99.90;;;;;;5034178;28;20185;-64
2024/01/23 11:24:03;;;;;;;8.43;2.40;;;11.60;99.90;;;;;;5033801;28;20174;-66
2024/01/23 11:26:30;;;;;;;7.82;2.00;;;11.60;99.90;;;;;;5014597;28;20174;-67
2024/01/23 11:29:09;;;;;;;8.82;2.13;;;11.70;99.90;;;;;;5026860;28;20252;-65
2024/01/23 11:31:39;;;;;;;11.02;2.13;;;11.70;99.90;;;;;;5034143;28;20212;-66
2024/01/23 11:34:23;;;;;;;13.15;2.20;;;11.80;99.90;;;;;;5034796;28;20162;-66
2024/01/23 11:36:49;;;;;;;9.07;1.98;;;11.90;99.90;;;;;;5014785;28;20270;-65
2024/01/23 11:39:15;;;;;;;9.15;2.30;;;11.90;99.90;;;;;;5035356;28;20256;-65
2024/01/23 11:41:47;;;;;;;8.95;2.20;;;11.90;99.90;;;;;;5037472;28;20197;-64
2024/01/23 11:44:13;;;;;;;9.93;2.30;;;11.90;99.90;;;;;;5032195;28;20489;-65
2024/01/23 11:46:40;;;;;;;9.68;2.67;;;11.90;99.90;;;;;;5038222;28;20198;-65
2024/01/23 11:49:09;;;;;;;9.23;2.53;;;11.90;99.90;;;;;;5040275;28;20202;-64
2024/01/23 11:51:40;;;;;;;7.13;2.20;;;11.90;99.90;;;;;;5038360;28;20193;-65
2024/01/23 11:54:13;;;;;;;7.70;2.08;;;11.90;99.90;;;;;;5034730;28;20174;-65
2024/01/23 11:56:41;;;;;;;7.63;1.85;;;11.90;99.90;;;;;;5019788;28;20289;-66
2024/01/23 11:59:06;;;;;;;7.35;1.80;;;11.90;99.90;;;;;;5028758;28;20213;-64
2024/01/23 12:01:34;;;;;;;10.60;2.05;;;11.90;99.90;;;;;;5038532;28;20174;-64
2024/01/23 12:04:01;;;;;;;7.60;2.10;;;11.90;99.90;;;;;;5037711;28;20181;-65
2024/01/23 12:06:31;;;;;;;9.95;2.10;;;11.80;99.90;;;;;;5037386;28;20174;-66
2024/01/23 12:09:02;;;;;;;8.43;2.00;;;11.80;99.90;;;;;;5033280;28;20492;-65
2024/01/23 12:11:29;;;;;;;9.13;2.53;;;11.80;99.90;;;;;;5029884;28;20181;-64
2024/01/23 12:13:55;;;;;;;7.15;1.98;;;11.80;99.90;;;;;;5037258;28;20182;-65
2024/01/23 12:16:21;;;;;;;10.10;2.53;;;11.70;99.90;;;;;;5036884;28;20184;-66
2024/01/23 12:18:56;;;;;;;8.80;2.47;;;11.70;99.90;;;;;;5037443;28;20237;-65
2024/01/23 12:21:22;;;;;;;11.65;2.63;;;11.70;99.90;;;;;;5033483;28;20186;-65
2024/01/23 12:23:49;;;;;;;6.97;2.25;;;11.60;99.90;;;;;;5030149;28;20259;-67
2024/01/23 12:26:17;;;;;;;6.75;2.00;;;11.60;99.90;;;;;;5037449;28;20194;-65
2024/01/23 12:28:44;;;;;;;7.28;2.17;;;11.60;99.90;;;;;;5037139;28;20220;-67
2024/01/23 12:31:11;;;;;;;6.85;2.00;;;11.60;99.90;;;;;;5037078;28;20205;-65
2024/01/23 12:33:43;;;;;;;8.27;2.08;;;11.70;99.90;;;;;;5023081;28;20213;-66
2024/01/23 12:36:16;;;;;;;6.60;1.98;;;11.70;99.90;;;;;;5035680;28;20174;-66
2024/01/23 12:38:46;;;;;;;8.60;2.00;;;11.60;99.90;;;;;;5036712;28;20170;-65
2024/01/23 12:41:12;;;;;;;7.30;2.03;;;11.70;99.90;;;;;;5035588;28;20266;-65
2024/01/23 12:43:39;;;;;;;4.60;1.63;;;11.70;99.90;;;;;;5037185;28;20245;-66
2024/01/23 12:46:04;;;;;;;9.88;2.03;;;11.80;99.90;;;;;;5037159;28;20235;-66
2024/01/23 12:48:32;;;;;;;8.48;2.13;;;11.80;99.90;;;;;;5036139;28;20197;-65
2024/01/23 12:50:58;;;;;;;5.30;1.77;;;11.90;99.90;;;;;;5036761;28;20198;-66